sim
Sign-in with your pilot id or email,
or register
Callsign
Passwort

Schedule Details

Flight Number: DLH2021
Departure: Dusseldorf International Airport (EDDL) at 19:25
Arrival: Munich Airport (EDDM) at 20:35
Route: Lufthansa Passenger Schedule. Enter filed route here before submitting Pirep.

Weather Information
Getting current METAR information for EDDL 231250Z 23014KT 9999 FEW046TCU 23/11 Q1004 NOSIG
Getting current METAR information for EDDM 231250Z 25005KT 230V290 6000 SHRA SCT015 SCT020CB BKN043 18/15 Q1010 TEMPO 4000

Schedule Frequency

Route Map